• Join FlightAware (Why Join?)
  • Login
  • US Flag 
01:23PM EDT


 

Airport Tracker/Info


-or-


 

Live Flight TrackerFlight Track Log ✈ DAL6246 ✈ 23-Aug-2013 ✈ KCVG - KLGA

Flight Track Log - Related Links

Times and Time Zones

All times are in EDT time to prevent confusion due to time zone crossing. See the DAL6246 flight status page for this flight to view local times or setup timezone preferences in your user account.

Time Position Orientation Groundspeed Altitude Reporting Facility
EDT Latitude Longitude Course Direction KTS MPH feet Rate Location/Type
08:07PM 39.0500 -84.6833 333° Northwest 164 189 1,500  Level Cincinnati TRACON
08:09PM 39.1000 -84.7167 333° Northwest 230 265 3,700 2,100 Climbing Cincinnati TRACON
08:10PM 39.1756 -84.6681 27° Northeast 271 312 7,400 2,700 Climbing Indianapolis Center
08:11PM 39.2422 -84.6219 28° Northeast 269 310 10,200 2,580 Climbing Indianapolis Center
08:12PM 39.3094 -84.5761 28° Northeast 272 313 12,800 1,800 Climbing Indianapolis Center
08:13PM 39.3861 -84.5233 28° Northeast 305 351 13,900 1,200 Climbing Indianapolis Center
08:14PM 39.4931 -84.4492 28° Northeast 358 412 15,400 1,320 Climbing Indianapolis Center
08:15PM 39.5789 -84.3667 37° Northeast 388 447 16,700 1,260 Climbing Indianapolis Center
08:16PM 39.6619 -84.2697 42° Northeast 398 458 18,000 1,260 Climbing Indianapolis Center
08:17PM 39.7444 -84.1706 43° Northeast 403 464 19,400 1,260 Climbing Indianapolis Center
08:18PM 39.8300 -84.0692 42° Northeast 412 474 20,600 1,020 Climbing Indianapolis Center
08:19PM 39.9169 -83.9650 43° Northeast 419 482 21,600 1,020 Climbing Indianapolis Center
08:20PM 40.0058 -83.8556 43° Northeast 432 497 22,700 1,140 Climbing Indianapolis Center
08:21PM 40.0961 -83.7467 43° Northeast 436 502 24,000 1,200 Climbing Indianapolis Center
08:22PM 40.1861 -83.6364 43° Northeast 438 504 25,200 1,020 Climbing Indianapolis Center
08:23PM 40.2764 -83.5253 43° Northeast 441 507 26,200 960 Climbing Indianapolis Center
08:24PM 40.3683 -83.4125 43° Northeast 447 514 27,200 1,020 Climbing Indianapolis Center
08:25PM 40.4775 -83.2761 44° Northeast 451 519 28,400 960 Climbing Indianapolis Center
08:26PM 40.5697 -83.1631 43° Northeast 451 519 29,200 780 Climbing Indianapolis Center
08:27PM 40.6522 -83.0594 44° Northeast 457 526 30,000 660 Climbing Indianapolis Center
08:28PM 40.7628 -82.9197 44° Northeast 467 537 30,600 480 Climbing Indianapolis Center
08:29PM 40.8483 -82.7908 49° Northeast 470 541 31,000 180 Climbing Indianapolis Center
08:30PM 40.8719 -82.6086 80° East 498 573 31,000  Level Indianapolis Center
08:32PM 40.8914 -82.4256 82° East 500 575 31,000  Level Indianapolis Center
08:33PM 40.9081 -82.2408 83° East 504 580 31,000  Level Indianapolis Center
08:34PM 40.9253 -82.0558 83° East 505 581 31,000  Level Indianapolis Center
08:35PM 40.9417 -81.8703 83° East 508 585 31,000  Level Indianapolis Center
08:36PM 40.9583 -81.6844 83° East 510 587 31,000  Level Indianapolis Center
08:37PM 40.9747 -81.4658 84° East 500 575 31,000  Level Cleveland Center
08:38PM 40.9928 -81.2792 83° East 500 575 31,000  Level Cleveland Center
08:39PM 41.0061 -81.0950 84° East 500 575 31,000  Level Cleveland Center
08:40PM 41.0256 -80.9300 81° East 505 581 31,000  Level Cleveland Center
08:41PM 41.0386 -80.7428 85° East 505 581 31,000  Level Cleveland Center
08:42PM 41.0531 -80.5611 84° East 498 573 31,000  Level Cleveland Center
08:43PM 41.0675 -80.3767 84° East 498 573 31,000  Level Cleveland Center
08:44PM 41.0817 -80.1892 84° East 498 573 31,000  Level Cleveland Center
08:45PM 41.0956 -79.9881 85° East 498 573 31,000  Level Cleveland Center
08:46PM 41.1089 -79.8033 84° East 498 573 31,000  Level Cleveland Center
08:47PM 41.1222 -79.6183 84° East 498 573 31,000  Level Cleveland Center
08:48PM 41.1331 -79.4392 85° East 498 573 31,000  Level Cleveland Center
08:49PM 41.1456 -79.2542 85° East 498 573 31,000  Level Cleveland Center
08:50PM 41.1578 -79.0692 85° East 498 573 31,000  Level Cleveland Center
08:51PM 41.1719 -78.8811 84° East 504 580 31,000  Level Cleveland Center
08:52PM 41.1856 -78.6958 84° East 504 580 31,000  Level Cleveland Center
08:54PM 41.2047 -78.3444 86° East 497 572 31,000  Level New York Center
08:55PM 41.2122 -78.1603 87° East 497 572 31,000  Level New York Center
08:56PM 41.1925 -77.9706 98° East 503 579 31,000  Level New York Center
08:57PM 41.1683 -77.7833 100° East 508 585 31,000 -60 Level New York Center
08:58PM 41.1461 -77.5936 99° East 508 585 30,900 -1,020 Descending New York Center
08:59PM 41.1214 -77.4064 100° East 508 585 29,000 -1,920 Descending New York Center
09:00PM 41.0978 -77.2278 100° East 502 578 27,100 -1,860 Descending New York Center
09:01PM 41.0736 -77.0575 101° East 487 560 25,300 -1,800 Descending New York Center
09:02PM 41.0514 -76.8850 100° East 473 544 23,600 -1,680 Descending New York Center
09:03PM 41.0286 -76.7206 100° East 473 544 22,000 -1,560 Descending New York Center
09:04PM 40.9928 -76.5606 106° East 462 532 20,500 -1,440 Descending New York Center
09:05PM 40.9606 -76.4094 106° East 450 518 19,200 -1,380 Descending New York Center
09:06PM 40.9258 -76.2611 107° East 424 488 17,800 -1,440 Descending New York Center
09:07PM 40.8886 -76.1153 109° East 418 481 16,400 -1,500 Descending New York Center
09:08PM 40.8533 -75.9725 108° East 413 475 14,900 -1,440 Descending New York Center
09:09PM 40.8236 -75.8442 107° East 413 475 13,600 -960 Descending New York Center
09:10PM 40.7842 -75.6906 109° East 413 475 13,000 -360 Descending New York Center
09:11PM 40.7522 -75.5539 107° East 408 470 13,000  Level New York Center
09:12PM 40.7219 -75.4286 108° East 396 456 13,000 -600 Level New York Center
09:13PM 40.6939 -75.2872 105° East 391 450 11,900 -1,140 Descending New York Center
09:14PM 40.6536 -75.1450 110° East 385 443 10,800 -960 Descending New York Center
09:15PM 40.5844 -75.0367 130° Southeast 373 429 10,000 -420 Descending New York Center
09:16PM 40.5486 -74.9361 115° Southeast 360 414 10,000  Level New York Center
09:17PM 40.5167 -74.8167 109° East 297 342 10,000  Level New York TRACON
09:18PM 40.4833 -74.7167 114° Southeast 293 337 10,000  Level New York TRACON
09:19PM 40.4500 -74.6167 114° Southeast 299 344 10,000 -420 Level New York TRACON
09:20PM 40.3833 -74.5500 143° Southeast 298 343 9,200 -900 Descending New York TRACON
09:21PM 40.3333 -74.4833 135° Southeast 299 344 8,200 -600 Descending New York TRACON
09:22PM 40.3167 -74.3833 102° East 281 323 8,000 -420 Descending New York TRACON
09:23PM 40.3339 -74.2942 76° East 272 313 7,400 -540 Descending New York Center
09:24PM 40.3878 -74.2369 39° Northeast 228 262 7,000 -240 Descending New York Center
09:25PM 40.4433 -74.1933 31° Northeast 237 273 7,000 -600 Level New York Center
09:26PM 40.4947 -74.1414 38° Northeast 231 266 5,800 -1,200 Descending New York Center
09:27PM 40.5375 -74.0997 37° Northeast 214 246 4,600 -1,200 Descending New York Center
09:28PM 40.5869 -74.0531 36° Northeast 203 234 3,500 -1,080 Descending New York Center
09:29PM 40.6333 -74.0000 41° Northeast 198 228 2,500 -540 Descending New York TRACON
09:30PM 40.6833 -73.9667 27° Northeast 177 204 2,500 -120 Level New York TRACON
09:31PM 40.7167 -73.9333 37° Northeast 171 197 2,300 -540 Descending New York TRACON
09:32PM 40.7333 -73.8833 66° East 129 148 1,500 -720 Descending New York TRACON
09:33PM 40.7500 -73.8333 66° East 135 155 900 -600 Descending New York TRACON
09:35PM 40.7667 -73.8667 30° Northeast  Level FlightAware Approximate
09:42PM 40.7772 -73.8726 30° Northeast  Level Estimated
09:43PM 40.7772 -73.8726 30° Northeast  Level Estimated
09:44PM 40.7772 -73.8726 30° Northeast  Level Estimated
09:45PM 40.7772 -73.8726 30° Northeast  Level Estimated